sensor_id;sensor_type;location;lat;lon;timestamp;temperature;humidity
20881;DHT22;10600;53.096;8.802;2022-08-19T00:00:23;18.00;99.90
20881;DHT22;10600;53.096;8.802;2022-08-19T00:01:26;18.00;99.90
20881;DHT22;10600;53.096;8.802;2022-08-19T00:02:29;18.00;99.90
20881;DHT22;10600;53.096;8.802;2022-08-19T00:03:30;18.00;99.90
20881;DHT22;10600;53.096;8.802;2022-08-19T00:04:33;18.00;99.90
20881;DHT22;10600;53.096;8.802;2022-08-19T00:05:36;18.00;99.90
20881;DHT22;10600;53.096;8.802;2022-08-19T00:06:39;18.00;99.90
20881;DHT22;10600;53.096;8.802;2022-08-19T00:07:42;18.00;99.90
20881;DHT22;10600;53.096;8.802;2022-08-19T00:08:43;18.00;99.90
20881;DHT22;10600;53.096;8.802;2022-08-19T00:09:44;18.00;99.90
20881;DHT22;10600;53.096;8.802;2022-08-19T00:10:45;18.00;99.90
20881;DHT22;10600;53.096;8.802;2022-08-19T00:11:48;18.00;99.90
20881;DHT22;10600;53.096;8.802;2022-08-19T00:12:49;18.00;99.90
20881;DHT22;10600;53.096;8.802;2022-08-19T00:13:50;18.00;99.90
20881;DHT22;10600;53.096;8.802;2022-08-19T00:14:51;18.00;99.90
20881;DHT22;10600;53.096;8.802;2022-08-19T00:15:53;18.00;99.90
20881;DHT22;10600;53.096;8.802;2022-08-19T00:16:54;18.00;99.90
20881;DHT22;10600;53.096;8.802;2022-08-19T00:17:55;18.00;99.90
20881;DHT22;10600;53.096;8.802;2022-08-19T00:18:56;18.00;99.90
20881;DHT22;10600;53.096;8.802;2022-08-19T00:19:56;18.00;99.90
20881;DHT22;10600;53.096;8.802;2022-08-19T00:20:57;18.00;99.90
20881;DHT22;10600;53.096;8.802;2022-08-19T00:21:59;18.00;99.90
20881;DHT22;10600;53.096;8.802;2022-08-19T00:23:00;18.00;99.90
20881;DHT22;10600;53.096;8.802;2022-08-19T00:24:01;18.00;99.90
20881;DHT22;10600;53.096;8.802;2022-08-19T00:25:02;18.00;99.90
20881;DHT22;10600;53.096;8.802;2022-08-19T00:26:04;18.00;99.90
20881;DHT22;10600;53.096;8.802;2022-08-19T00:27:05;18.00;99.90
20881;DHT22;10600;53.096;8.802;2022-08-19T00:28:06;18.00;99.90
20881;DHT22;10600;53.096;8.802;2022-08-19T00:29:09;18.00;99.90
20881;DHT22;10600;53.096;8.802;2022-08-19T00:30:10;18.00;99.90
20881;DHT22;10600;53.096;8.802;2022-08-19T00:31:11;18.00;99.90
20881;DHT22;10600;53.096;8.802;2022-08-19T00:32:12;18.00;99.90
20881;DHT22;10600;53.096;8.802;2022-08-19T00:33:12;18.00;99.90
20881;DHT22;10600;53.096;8.802;2022-08-19T00:34:14;17.90;99.90
20881;DHT22;10600;53.096;8.802;2022-08-19T00:35:15;18.00;99.90
20881;DHT22;10600;53.096;8.802;2022-08-19T00:36:17;18.00;99.90
20881;DHT22;10600;53.096;8.802;2022-08-19T00:37:24;18.00;99.90
20881;DHT22;10600;53.096;8.802;2022-08-19T00:38:26;18.00;99.90
20881;DHT22;10600;53.096;8.802;2022-08-19T00:39:28;18.00;99.90
20881;DHT22;10600;53.096;8.802;2022-08-19T00:40:28;18.00;99.90
20881;DHT22;10600;53.096;8.802;2022-08-19T00:41:31;18.00;99.90
20881;DHT22;10600;53.096;8.802;2022-08-19T00:42:32;18.00;99.90
20881;DHT22;10600;53.096;8.802;2022-08-19T00:43:33;18.00;99.90
20881;DHT22;10600;53.096;8.802;2022-08-19T00:44:34;18.00;99.90
20881;DHT22;10600;53.096;8.802;2022-08-19T00:45:35;18.00;99.90
20881;DHT22;10600;53.096;8.802;2022-08-19T00:46:39;18.00;99.90
20881;DHT22;10600;53.096;8.802;2022-08-19T00:47:40;18.10;99.90
20881;DHT22;10600;53.096;8.802;2022-08-19T00:48:40;18.10;99.90
20881;DHT22;10600;53.096;8.802;2022-08-19T00:49:50;18.10;99.90
20881;DHT22;10600;53.096;8.802;2022-08-19T00:50:52;18.10;99.90
20881;DHT22;10600;53.096;8.802;2022-08-19T00:52:11;18.20;99.90
20881;DHT22;10600;53.096;8.802;2022-08-19T00:53:15;18.10;99.90
20881;DHT22;10600;53.096;8.802;2022-08-19T00:54:21;18.10;99.90
20881;DHT22;10600;53.096;8.802;2022-08-19T00:55:29;18.10;99.90
20881;DHT22;10600;53.096;8.802;2022-08-19T00:56:31;18.20;99.90
20881;DHT22;10600;53.096;8.802;2022-08-19T00:57:35;18.10;99.90
20881;DHT22;10600;53.096;8.802;2022-08-19T00:58:37;18.10;99.90
20881;DHT22;10600;53.096;8.802;2022-08-19T00:59:39;18.10;99.90
20881;DHT22;10600;53.096;8.802;2022-08-19T01:00:40;18.10;99.90
20881;DHT22;10600;53.096;8.802;2022-08-19T01:01:42;18.20;99.90
20881;DHT22;10600;53.096;8.802;2022-08-19T01:02:45;18.10;99.90
20881;DHT22;10600;53.096;8.802;2022-08-19T01:03:46;18.10;99.90
20881;DHT22;10600;53.096;8.802;2022-08-19T01:04:47;18.20;99.90
20881;DHT22;10600;53.096;8.802;2022-08-19T01:05:49;18.10;99.90
20881;DHT22;10600;53.096;8.802;2022-08-19T01:06:50;18.10;99.90
20881;DHT22;10600;53.096;8.802;2022-08-19T01:07:51;18.10;99.90
20881;DHT22;10600;53.096;8.802;2022-08-19T01:08:54;18.10;99.90
20881;DHT22;10600;53.096;8.802;2022-08-19T01:09:55;18.10;99.90
20881;DHT22;10600;53.096;8.802;2022-08-19T01:10:58;18.10;99.90
20881;DHT22;10600;53.096;8.802;2022-08-19T01:12:00;18.10;99.90
20881;DHT22;10600;53.096;8.802;2022-08-19T01:13:03;18.10;99.90
20881;DHT22;10600;53.096;8.802;2022-08-19T01:14:05;18.10;99.90
20881;DHT22;10600;53.096;8.802;2022-08-19T01:15:12;18.10;99.90
20881;DHT22;10600;53.096;8.802;2022-08-19T01:16:19;18.10;99.90
20881;DHT22;10600;53.096;8.802;2022-08-19T01:17:21;18.10;99.90
20881;DHT22;10600;53.096;8.802;2022-08-19T01:18:22;18.10;99.90
20881;DHT22;10600;53.096;8.802;2022-08-19T01:19:32;18.10;99.90
20881;DHT22;10600;53.096;8.802;2022-08-19T01:20:34;18.10;99.90
20881;DHT22;10600;53.096;8.802;2022-08-19T01:21:39;18.10;99.90
20881;DHT22;10600;53.096;8.802;2022-08-19T01:22:49;18.10;99.90
20881;DHT22;10600;53.096;8.802;2022-08-19T01:23:51;18.10;99.90
20881;DHT22;10600;53.096;8.802;2022-08-19T01:24:52;18.20;99.90
20881;DHT22;10600;53.096;8.802;2022-08-19T01:25:53;18.20;99.90
20881;DHT22;10600;53.096;8.802;2022-08-19T01:26:54;18.10;99.90
20881;DHT22;10600;53.096;8.802;2022-08-19T01:27:55;18.10;99.90
20881;DHT22;10600;53.096;8.802;2022-08-19T01:28:58;18.10;99.90
20881;DHT22;10600;53.096;8.802;2022-08-19T01:29:59;18.20;99.90
20881;DHT22;10600;53.096;8.802;2022-08-19T01:31:00;18.20;99.90
20881;DHT22;10600;53.096;8.802;2022-08-19T01:32:01;18.20;99.90
20881;DHT22;10600;53.096;8.802;2022-08-19T01:33:02;18.20;99.90
20881;DHT22;10600;53.096;8.802;2022-08-19T01:34:06;18.20;99.90
20881;DHT22;10600;53.096;8.802;2022-08-19T01:35:08;18.20;99.90
20881;DHT22;10600;53.096;8.802;2022-08-19T01:36:20;18.20;99.90
20881;DHT22;10600;53.096;8.802;2022-08-19T01:37:22;18.20;99.90
20881;DHT22;10600;53.096;8.802;2022-08-19T01:38:26;18.20;99.90
20881;DHT22;10600;53.096;8.802;2022-08-19T01:39:27;18.20;99.90
20881;DHT22;10600;53.096;8.802;2022-08-19T01:40:31;18.10;99.90
20881;DHT22;10600;53.096;8.802;2022-08-19T01:41:32;18.20;99.90
20881;DHT22;10600;53.096;8.802;2022-08-19T01:42:33;18.10;99.90
20881;DHT22;10600;53.096;8.802;2022-08-19T01:43:37;18.10;99.90
20881;DHT22;10600;53.096;8.802;2022-08-19T01:44:39;18.10;99.90
20881;DHT22;10600;53.096;8.802;2022-08-19T01:45:41;18.10;99.90
20881;DHT22;10600;53.096;8.802;2022-08-19T01:46:43;18.10;99.90
20881;DHT22;10600;53.096;8.802;2022-08-19T01:47:44;18.10;99.90
20881;DHT22;10600;53.096;8.802;2022-08-19T01:48:45;18.10;99.90
20881;DHT22;10600;53.096;8.802;2022-08-19T01:49:46;18.10;99.90
20881;DHT22;10600;53.096;8.802;2022-08-19T01:50:47;18.10;99.90
20881;DHT22;10600;53.096;8.802;2022-08-19T01:51:49;18.10;99.90
20881;DHT22;10600;53.096;8.802;2022-08-19T01:52:50;18.10;99.90
20881;DHT22;10600;53.096;8.802;2022-08-19T01:53:51;18.10;99.90
20881;DHT22;10600;53.096;8.802;2022-08-19T01:54:52;18.10;99.90
20881;DHT22;10600;53.096;8.802;2022-08-19T01:55:52;18.10;99.90
20881;DHT22;10600;53.096;8.802;2022-08-19T01:57:05;18.10;99.90
20881;DHT22;10600;53.096;8.802;2022-08-19T01:58:17;18.10;99.90
20881;DHT22;10600;53.096;8.802;2022-08-19T01:59:20;18.10;99.90
20881;DHT22;10600;53.096;8.802;2022-08-19T02:00:24;18.10;99.90
20881;DHT22;10600;53.096;8.802;2022-08-19T02:01:28;18.00;99.90
20881;DHT22;10600;53.096;8.802;2022-08-19T02:02:32;18.10;99.90
20881;DHT22;10600;53.096;8.802;2022-08-19T02:03:34;18.10;99.90
20881;DHT22;10600;53.096;8.802;2022-08-19T02:04:37;18.10;99.90
20881;DHT22;10600;53.096;8.802;2022-08-19T02:05:39;18.10;99.90
20881;DHT22;10600;53.096;8.802;2022-08-19T02:06:40;18.10;99.90
20881;DHT22;10600;53.096;8.802;2022-08-19T02:07:41;18.00;99.90
20881;DHT22;10600;53.096;8.802;2022-08-19T02:08:42;18.00;99.90
20881;DHT22;10600;53.096;8.802;2022-08-19T02:09:46;18.00;99.90
20881;DHT22;10600;53.096;8.802;2022-08-19T02:10:47;18.00;99.90
20881;DHT22;10600;53.096;8.802;2022-08-19T02:11:48;18.00;99.90
20881;DHT22;10600;53.096;8.802;2022-08-19T02:12:49;18.00;99.90
20881;DHT22;10600;53.096;8.802;2022-08-19T02:13:50;18.00;99.90
20881;DHT22;10600;53.096;8.802;2022-08-19T02:14:51;18.00;99.90
20881;DHT22;10600;53.096;8.802;2022-08-19T02:15:51;18.00;99.90
20881;DHT22;10600;53.096;8.802;2022-08-19T02:16:52;18.00;99.90
20881;DHT22;10600;53.096;8.802;2022-08-19T02:17:53;18.00;99.90
20881;DHT22;10600;53.096;8.802;2022-08-19T02:18:54;18.10;99.90
20881;DHT22;10600;53.096;8.802;2022-08-19T02:19:55;18.00;99.90
20881;DHT22;10600;53.096;8.802;2022-08-19T02:20:56;18.10;99.90
20881;DHT22;10600;53.096;8.802;2022-08-19T02:21:57;18.00;99.90
20881;DHT22;10600;53.096;8.802;2022-08-19T02:22:58;18.00;99.90
20881;DHT22;10600;53.096;8.802;2022-08-19T02:23:58;18.00;99.90
20881;DHT22;10600;53.096;8.802;2022-08-19T02:24:59;18.00;99.90
20881;DHT22;10600;53.096;8.802;2022-08-19T02:26:00;18.00;99.90
20881;DHT22;10600;53.096;8.802;2022-08-19T02:27:01;18.00;99.90
20881;DHT22;10600;53.096;8.802;2022-08-19T02:28:02;17.90;99.90
20881;DHT22;10600;53.096;8.802;2022-08-19T02:29:03;17.90;99.90
20881;DHT22;10600;53.096;8.802;2022-08-19T02:30:06;17.90;99.90
20881;DHT22;10600;53.096;8.802;2022-08-19T02:31:16;17.90;99.90
20881;DHT22;10600;53.096;8.802;2022-08-19T02:32:18;17.90;99.90
20881;DHT22;10600;53.096;8.802;2022-08-19T02:33:22;17.90;99.90
20881;DHT22;10600;53.096;8.802;2022-08-19T02:34:23;17.90;99.90
20881;DHT22;10600;53.096;8.802;2022-08-19T02:35:25;17.90;99.90
20881;DHT22;10600;53.096;8.802;2022-08-19T02:36:26;17.80;99.90
20881;DHT22;10600;53.096;8.802;2022-08-19T02:37:28;17.80;99.90
20881;DHT22;10600;53.096;8.802;2022-08-19T02:38:48;17.80;99.90
20881;DHT22;10600;53.096;8.802;2022-08-19T02:39:48;17.80;99.90
20881;DHT22;10600;53.096;8.802;2022-08-19T02:40:51;17.80;99.90
20881;DHT22;10600;53.096;8.802;2022-08-19T02:41:52;17.80;99.90
20881;DHT22;10600;53.096;8.802;2022-08-19T02:42:53;17.80;99.90
20881;DHT22;10600;53.096;8.802;2022-08-19T02:43:59;17.80;99.90
20881;DHT22;10600;53.096;8.802;2022-08-19T02:44:59;17.80;99.90
20881;DHT22;10600;53.096;8.802;2022-08-19T02:46:01;17.80;99.90
20881;DHT22;10600;53.096;8.802;2022-08-19T02:47:02;17.80;99.90
20881;DHT22;10600;53.096;8.802;2022-08-19T02:48:04;17.80;99.90
20881;DHT22;10600;53.096;8.802;2022-08-19T02:49:07;17.80;99.90
20881;DHT22;10600;53.096;8.802;2022-08-19T02:50:09;17.80;99.90
20881;DHT22;10600;53.096;8.802;2022-08-19T02:51:28;17.80;99.90
20881;DHT22;10600;53.096;8.802;2022-08-19T02:52:30;17.80;99.90
20881;DHT22;10600;53.096;8.802;2022-08-19T02:53:32;17.80;99.90
20881;DHT22;10600;53.096;8.802;2022-08-19T02:54:39;17.80;99.90
20881;DHT22;10600;53.096;8.802;2022-08-19T02:55:45;17.80;99.90
20881;DHT22;10600;53.096;8.802;2022-08-19T02:56:49;17.80;99.90
20881;DHT22;10600;53.096;8.802;2022-08-19T02:57:53;17.80;99.90
20881;DHT22;10600;53.096;8.802;2022-08-19T02:58:55;17.80;99.90
20881;DHT22;10600;53.096;8.802;2022-08-19T02:59:55;17.80;99.90
20881;DHT22;10600;53.096;8.802;2022-08-19T03:00:56;17.80;99.90
20881;DHT22;10600;53.096;8.802;2022-08-19T03:01:57;17.80;99.90
20881;DHT22;10600;53.096;8.802;2022-08-19T03:02:58;17.80;99.90
20881;DHT22;10600;53.096;8.802;2022-08-19T03:04:04;17.80;99.90
20881;DHT22;10600;53.096;8.802;2022-08-19T03:05:06;17.80;99.90
20881;DHT22;10600;53.096;8.802;2022-08-19T03:06:11;17.80;99.90
20881;DHT22;10600;53.096;8.802;2022-08-19T03:07:14;17.80;99.90
20881;DHT22;10600;53.096;8.802;2022-08-19T03:08:15;17.80;99.90
20881;DHT22;10600;53.096;8.802;2022-08-19T03:09:26;17.90;99.90
20881;DHT22;10600;53.096;8.802;2022-08-19T03:10:27;17.90;99.90
20881;DHT22;10600;53.096;8.802;2022-08-19T03:11:30;17.90;99.90
20881;DHT22;10600;53.096;8.802;2022-08-19T03:12:36;17.90;99.90
20881;DHT22;10600;53.096;8.802;2022-08-19T03:13:37;17.90;99.90
20881;DHT22;10600;53.096;8.802;2022-08-19T03:14:38;17.90;99.90
20881;DHT22;10600;53.096;8.802;2022-08-19T03:15:48;17.90;99.90
20881;DHT22;10600;53.096;8.802;2022-08-19T03:16:51;17.90;99.90
20881;DHT22;10600;53.096;8.802;2022-08-19T03:17:52;17.90;99.90
20881;DHT22;10600;53.096;8.802;2022-08-19T03:18:55;17.90;99.90
20881;DHT22;10600;53.096;8.802;2022-08-19T03:19:56;17.90;99.90
20881;DHT22;10600;53.096;8.802;2022-08-19T03:20:57;18.00;99.90
20881;DHT22;10600;53.096;8.802;2022-08-19T03:21:58;18.00;99.90
20881;DHT22;10600;53.096;8.802;2022-08-19T03:22:59;18.00;99.90
20881;DHT22;10600;53.096;8.802;2022-08-19T03:24:02;18.00;99.90
20881;DHT22;10600;53.096;8.802;2022-08-19T03:25:04;18.00;99.90
20881;DHT22;10600;53.096;8.802;2022-08-19T03:26:07;18.00;99.90
20881;DHT22;10600;53.096;8.802;2022-08-19T03:27:11;18.00;99.90
20881;DHT22;10600;53.096;8.802;2022-08-19T03:28:14;18.00;99.90
20881;DHT22;10600;53.096;8.802;2022-08-19T03:29:28;18.00;99.90
20881;DHT22;10600;53.096;8.802;2022-08-19T03:30:42;18.00;99.90
20881;DHT22;10600;53.096;8.802;2022-08-19T03:31:45;18.00;99.90
20881;DHT22;10600;53.096;8.802;2022-08-19T03:32:46;18.00;99.90
20881;DHT22;10600;53.096;8.802;2022-08-19T03:33:47;18.00;99.90
20881;DHT22;10600;53.096;8.802;2022-08-19T03:34:51;18.00;99.90
20881;DHT22;10600;53.096;8.802;2022-08-19T03:36:02;18.00;99.90
20881;DHT22;10600;53.096;8.802;2022-08-19T03:37:06;18.00;99.90
20881;DHT22;10600;53.096;8.802;2022-08-19T03:38:10;18.00;99.90
20881;DHT22;10600;53.096;8.802;2022-08-19T03:39:11;18.00;99.90
20881;DHT22;10600;53.096;8.802;2022-08-19T03:40:12;18.00;99.90
20881;DHT22;10600;53.096;8.802;2022-08-19T03:41:18;18.00;99.90
20881;DHT22;10600;53.096;8.802;2022-08-19T03:42:22;18.00;99.90
20881;DHT22;10600;53.096;8.802;2022-08-19T03:43:23;18.00;99.90
20881;DHT22;10600;53.096;8.802;2022-08-19T03:44:25;18.00;99.90
20881;DHT22;10600;53.096;8.802;2022-08-19T03:45:28;18.00;99.90
20881;DHT22;10600;53.096;8.802;2022-08-19T03:46:31;17.90;99.90
20881;DHT22;10600;53.096;8.802;2022-08-19T03:47:35;17.90;99.90
20881;DHT22;10600;53.096;8.802;2022-08-19T03:48:44;17.90;99.90
20881;DHT22;10600;53.096;8.802;2022-08-19T03:49:48;17.90;99.90
20881;DHT22;10600;53.096;8.802;2022-08-19T03:50:51;17.90;99.90
20881;DHT22;10600;53.096;8.802;2022-08-19T03:51:53;17.80;99.90
20881;DHT22;10600;53.096;8.802;2022-08-19T03:53:00;17.80;99.90
20881;DHT22;10600;53.096;8.802;2022-08-19T03:54:05;17.80;99.90
20881;DHT22;10600;53.096;8.802;2022-08-19T03:55:06;17.70;99.90
20881;DHT22;10600;53.096;8.802;2022-08-19T03:56:09;17.70;99.90
20881;DHT22;10600;53.096;8.802;2022-08-19T03:57:10;17.70;99.90
20881;DHT22;10600;53.096;8.802;2022-08-19T03:58:11;17.70;99.90
20881;DHT22;10600;53.096;8.802;2022-08-19T03:59:15;17.70;99.90
20881;DHT22;10600;53.096;8.802;2022-08-19T04:00:16;17.70;99.90
20881;DHT22;10600;53.096;8.802;2022-08-19T04:01:20;17.70;99.90
20881;DHT22;10600;53.096;8.802;2022-08-19T04:02:21;17.70;99.90
20881;DHT22;10600;53.096;8.802;2022-08-19T04:03:25;17.70;99.90
20881;DHT22;10600;53.096;8.802;2022-08-19T04:04:27;17.70;99.90
20881;DHT22;10600;53.096;8.802;2022-08-19T04:05:29;17.70;99.90
20881;DHT22;10600;53.096;8.802;2022-08-19T04:06:32;17.70;99.90
20881;DHT22;10600;53.096;8.802;2022-08-19T04:07:34;17.70;99.90
20881;DHT22;10600;53.096;8.802;2022-08-19T04:08:35;17.70;99.90
20881;DHT22;10600;53.096;8.802;2022-08-19T04:09:36;17.70;99.90
20881;DHT22;10600;53.096;8.802;2022-08-19T04:10:37;17.70;99.90
20881;DHT22;10600;53.096;8.802;2022-08-19T04:11:47;17.70;99.90
20881;DHT22;10600;53.096;8.802;2022-08-19T04:12:48;17.70;99.90
20881;DHT22;10600;53.096;8.802;2022-08-19T04:13:53;17.70;99.90
20881;DHT22;10600;53.096;8.802;2022-08-19T04:14:53;17.70;99.90
20881;DHT22;10600;53.096;8.802;2022-08-19T04:15:54;17.70;99.90
20881;DHT22;10600;53.096;8.802;2022-08-19T04:16:55;17.70;99.90
20881;DHT22;10600;53.096;8.802;2022-08-19T04:17:56;17.70;99.90
20881;DHT22;10600;53.096;8.802;2022-08-19T04:19:00;17.70;99.90
20881;DHT22;10600;53.096;8.802;2022-08-19T04:20:01;17.70;99.90
20881;DHT22;10600;53.096;8.802;2022-08-19T04:21:02;17.70;99.90
20881;DHT22;10600;53.096;8.802;2022-08-19T04:22:03;17.70;99.90
20881;DHT22;10600;53.096;8.802;2022-08-19T04:23:04;17.70;99.90
20881;DHT22;10600;53.096;8.802;2022-08-19T04:24:05;17.80;99.90
20881;DHT22;10600;53.096;8.802;2022-08-19T04:25:06;17.80;99.90
20881;DHT22;10600;53.096;8.802;2022-08-19T04:26:12;17.70;99.90
20881;DHT22;10600;53.096;8.802;2022-08-19T04:27:13;17.70;99.90
20881;DHT22;10600;53.096;8.802;2022-08-19T04:28:14;17.70;99.90
20881;DHT22;10600;53.096;8.802;2022-08-19T04:29:22;17.70;99.90
20881;DHT22;10600;53.096;8.802;2022-08-19T04:30:25;17.70;99.90
20881;DHT22;10600;53.096;8.802;2022-08-19T04:31:28;17.70;99.90
20881;DHT22;10600;53.096;8.802;2022-08-19T04:32:29;17.70;99.90
20881;DHT22;10600;53.096;8.802;2022-08-19T04:33:32;17.60;99.90
20881;DHT22;10600;53.096;8.802;2022-08-19T04:34:33;17.60;99.90
20881;DHT22;10600;53.096;8.802;2022-08-19T04:35:39;17.50;99.90
20881;DHT22;10600;53.096;8.802;2022-08-19T04:36:42;17.50;99.90
20881;DHT22;10600;53.096;8.802;2022-08-19T04:37:45;17.40;99.90
20881;DHT22;10600;53.096;8.802;2022-08-19T04:38:47;17.40;99.90
20881;DHT22;10600;53.096;8.802;2022-08-19T04:39:48;17.30;99.90
20881;DHT22;10600;53.096;8.802;2022-08-19T04:41:07;17.30;99.90
20881;DHT22;10600;53.096;8.802;2022-08-19T04:42:26;17.20;99.90
20881;DHT22;10600;53.096;8.802;2022-08-19T04:43:39;17.10;99.90
20881;DHT22;10600;53.096;8.802;2022-08-19T04:44:39;17.10;99.90
20881;DHT22;10600;53.096;8.802;2022-08-19T04:45:43;17.00;99.90
20881;DHT22;10600;53.096;8.802;2022-08-19T04:46:45;17.00;99.90
20881;DHT22;10600;53.096;8.802;2022-08-19T04:47:47;17.00;99.90
20881;DHT22;10600;53.096;8.802;2022-08-19T04:48:48;17.00;99.90
20881;DHT22;10600;53.096;8.802;2022-08-19T04:49:49;17.00;99.90
20881;DHT22;10600;53.096;8.802;2022-08-19T04:50:50;17.00;99.90
20881;DHT22;10600;53.096;8.802;2022-08-19T04:51:53;16.90;99.90
20881;DHT22;10600;53.096;8.802;2022-08-19T04:52:54;16.90;99.90
20881;DHT22;10600;53.096;8.802;2022-08-19T04:53:56;16.90;99.90
20881;DHT22;10600;53.096;8.802;2022-08-19T04:54:57;16.90;99.90
20881;DHT22;10600;53.096;8.802;2022-08-19T04:55:59;16.90;99.90
20881;DHT22;10600;53.096;8.802;2022-08-19T04:57:01;16.80;99.90
20881;DHT22;10600;53.096;8.802;2022-08-19T04:58:02;16.80;99.90
20881;DHT22;10600;53.096;8.802;2022-08-19T04:59:03;16.80;99.90
20881;DHT22;10600;53.096;8.802;2022-08-19T05:00:05;16.80;99.90
20881;DHT22;10600;53.096;8.802;2022-08-19T05:01:05;16.80;99.90
20881;DHT22;10600;53.096;8.802;2022-08-19T05:02:08;16.80;99.90
20881;DHT22;10600;53.096;8.802;2022-08-19T05:03:09;16.70;99.90
20881;DHT22;10600;53.096;8.802;2022-08-19T05:04:13;16.70;99.90
20881;DHT22;10600;53.096;8.802;2022-08-19T05:05:23;16.70;99.90
20881;DHT22;10600;53.096;8.802;2022-08-19T05:06:24;16.70;99.90
20881;DHT22;10600;53.096;8.802;2022-08-19T05:07:26;16.70;99.90
20881;DHT22;10600;53.096;8.802;2022-08-19T05:08:27;16.70;99.90
20881;DHT22;10600;53.096;8.802;2022-08-19T05:09:29;16.70;99.90
20881;DHT22;10600;53.096;8.802;2022-08-19T05:10:30;16.70;99.90
20881;DHT22;10600;53.096;8.802;2022-08-19T05:11:35;16.60;99.90
20881;DHT22;10600;53.096;8.802;2022-08-19T05:12:39;16.60;99.90
20881;DHT22;10600;53.096;8.802;2022-08-19T05:13:40;16.60;99.90
20881;DHT22;10600;53.096;8.802;2022-08-19T05:14:43;16.60;99.90
20881;DHT22;10600;53.096;8.802;2022-08-19T05:15:56;16.60;99.90
20881;DHT22;10600;53.096;8.802;2022-08-19T05:16:57;16.60;99.90
20881;DHT22;10600;53.096;8.802;2022-08-19T05:17:58;16.60;99.90
20881;DHT22;10600;53.096;8.802;2022-08-19T05:19:19;16.60;99.90
20881;DHT22;10600;53.096;8.802;2022-08-19T05:20:38;16.60;99.90
20881;DHT22;10600;53.096;8.802;2022-08-19T05:21:59;16.60;99.90
20881;DHT22;10600;53.096;8.802;2022-08-19T05:23:19;16.60;99.90
20881;DHT22;10600;53.096;8.802;2022-08-19T05:24:21;16.60;99.90
20881;DHT22;10600;53.096;8.802;2022-08-19T05:25:22;16.60;99.90
20881;DHT22;10600;53.096;8.802;2022-08-19T05:26:24;16.60;99.90
20881;DHT22;10600;53.096;8.802;2022-08-19T05:27:28;16.60;99.90
20881;DHT22;10600;53.096;8.802;2022-08-19T05:28:29;16.60;99.90
20881;DHT22;10600;53.096;8.802;2022-08-19T05:29:30;16.60;99.90
20881;DHT22;10600;53.096;8.802;2022-08-19T05:30:35;16.60;99.90
20881;DHT22;10600;53.096;8.802;2022-08-19T05:31:37;16.60;99.90
20881;DHT22;10600;53.096;8.802;2022-08-19T05:32:39;16.60;99.90
20881;DHT22;10600;53.096;8.802;2022-08-19T05:33:40;16.60;99.90
20881;DHT22;10600;53.096;8.802;2022-08-19T05:34:41;16.60;99.90
20881;DHT22;10600;53.096;8.802;2022-08-19T05:35:41;16.60;99.90
20881;DHT22;10600;53.096;8.802;2022-08-19T05:36:51;16.60;99.90
20881;DHT22;10600;53.096;8.802;2022-08-19T05:37:59;16.60;99.90
20881;DHT22;10600;53.096;8.802;2022-08-19T05:39:00;16.60;99.90
20881;DHT22;10600;53.096;8.802;2022-08-19T05:40:02;16.60;99.90
20881;DHT22;10600;53.096;8.802;2022-08-19T05:41:09;16.60;99.90
20881;DHT22;10600;53.096;8.802;2022-08-19T05:42:12;16.60;99.90
20881;DHT22;10600;53.096;8.802;2022-08-19T05:43:13;16.60;99.90
20881;DHT22;10600;53.096;8.802;2022-08-19T05:44:16;16.70;99.90
20881;DHT22;10600;53.096;8.802;2022-08-19T05:45:21;16.80;99.90
20881;DHT22;10600;53.096;8.802;2022-08-19T05:46:22;16.80;99.90
20881;DHT22;10600;53.096;8.802;2022-08-19T05:47:23;16.90;99.90
20881;DHT22;10600;53.096;8.802;2022-08-19T05:48:28;16.90;99.90
20881;DHT22;10600;53.096;8.802;2022-08-19T05:49:31;17.00;99.90
20881;DHT22;10600;53.096;8.802;2022-08-19T05:50:35;17.00;99.90
20881;DHT22;10600;53.096;8.802;2022-08-19T05:51:49;17.00;99.90
20881;DHT22;10600;53.096;8.802;2022-08-19T05:52:50;17.00;99.90
20881;DHT22;10600;53.096;8.802;2022-08-19T05:53:52;17.10;99.90
20881;DHT22;10600;53.096;8.802;2022-08-19T05:54:58;17.10;99.90
20881;DHT22;10600;53.096;8.802;2022-08-19T05:56:06;17.00;99.90
20881;DHT22;10600;53.096;8.802;2022-08-19T05:57:08;17.00;99.90
20881;DHT22;10600;53.096;8.802;2022-08-19T05:58:09;17.00;99.90
20881;DHT22;10600;53.096;8.802;2022-08-19T05:59:10;17.00;99.90
20881;DHT22;10600;53.096;8.802;2022-08-19T06:00:12;17.00;99.90
20881;DHT22;10600;53.096;8.802;2022-08-19T06:01:16;17.10;99.90
20881;DHT22;10600;53.096;8.802;2022-08-19T06:02:17;17.10;99.90
20881;DHT22;10600;53.096;8.802;2022-08-19T06:03:21;17.10;99.90
20881;DHT22;10600;53.096;8.802;2022-08-19T06:04:27;17.10;99.90
20881;DHT22;10600;53.096;8.802;2022-08-19T06:05:30;17.20;99.90
20881;DHT22;10600;53.096;8.802;2022-08-19T06:06:31;17.20;99.90
20881;DHT22;10600;53.096;8.802;2022-08-19T06:07:38;17.20;99.90
20881;DHT22;10600;53.096;8.802;2022-08-19T06:08:45;17.20;99.90
20881;DHT22;10600;53.096;8.802;2022-08-19T06:09:52;17.30;99.90
20881;DHT22;10600;53.096;8.802;2022-08-19T06:10:53;17.40;99.90
20881;DHT22;10600;53.096;8.802;2022-08-19T06:11:59;17.40;99.90
20881;DHT22;10600;53.096;8.802;2022-08-19T06:13:01;17.40;99.90
20881;DHT22;10600;53.096;8.802;2022-08-19T06:14:05;17.40;99.90
20881;DHT22;10600;53.096;8.802;2022-08-19T06:15:11;17.50;99.90
20881;DHT22;10600;53.096;8.802;2022-08-19T06:16:12;17.50;99.90
20881;DHT22;10600;53.096;8.802;2022-08-19T06:17:12;17.60;99.90
20881;DHT22;10600;53.096;8.802;2022-08-19T06:18:15;17.60;99.90
20881;DHT22;10600;53.096;8.802;2022-08-19T06:19:18;17.60;99.90
20881;DHT22;10600;53.096;8.802;2022-08-19T06:20:20;17.60;99.90
20881;DHT22;10600;53.096;8.802;2022-08-19T06:21:23;17.60;99.90
20881;DHT22;10600;53.096;8.802;2022-08-19T06:22:24;17.60;99.90
20881;DHT22;10600;53.096;8.802;2022-08-19T06:23:32;17.60;99.90
20881;DHT22;10600;53.096;8.802;2022-08-19T06:24:33;17.70;99.90
20881;DHT22;10600;53.096;8.802;2022-08-19T06:25:35;17.70;99.90
20881;DHT22;10600;53.096;8.802;2022-08-19T06:26:38;17.70;99.90
20881;DHT22;10600;53.096;8.802;2022-08-19T06:27:39;17.80;99.90
20881;DHT22;10600;53.096;8.802;2022-08-19T06:28:40;17.80;99.90
20881;DHT22;10600;53.096;8.802;2022-08-19T06:29:43;17.90;99.90
20881;DHT22;10600;53.096;8.802;2022-08-19T06:30:44;17.90;99.90
20881;DHT22;10600;53.096;8.802;2022-08-19T06:31:47;18.00;99.90
20881;DHT22;10600;53.096;8.802;2022-08-19T06:32:50;18.00;99.90
20881;DHT22;10600;53.096;8.802;2022-08-19T06:33:51;18.00;99.90
20881;DHT22;10600;53.096;8.802;2022-08-19T06:34:51;18.00;99.90
20881;DHT22;10600;53.096;8.802;2022-08-19T06:35:52;18.00;99.90
20881;DHT22;10600;53.096;8.802;2022-08-19T06:36:55;18.10;99.90
20881;DHT22;10600;53.096;8.802;2022-08-19T06:38:06;18.10;99.90